Time;durP1;ratioP1;P1;durP2;ratioP2;P2;SDS_P1;SDS_P2;PMS_P1;PMS_P2;Temp;Humidity;BMP_temperature;BMP_pressure;BME280_temperature;BME280_humidity;BME280_pressure;Samples;Min_cycle;Max_cycle;Signal;HPM_P1;HPM_P2
2022/03/20 00:01:27;;;;;;;14.02;10.98;;;4.40;95.50;;;;;;5033159;28;20219;-55
2022/03/20 00:03:54;;;;;;;19.85;12.85;;;4.50;95.30;;;;;;5033094;28;20214;-55
2022/03/20 00:06:22;;;;;;;17.02;10.88;;;4.40;95.10;;;;;;5033489;28;20202;-54
2022/03/20 00:08:52;;;;;;;16.30;11.43;;;4.40;95.30;;;;;;5033108;28;20211;-56
2022/03/20 00:11:19;;;;;;;15.85;12.50;;;4.40;94.90;;;;;;5033242;28;20206;-56
2022/03/20 00:13:46;;;;;;;15.65;12.23;;;4.30;94.70;;;;;;5032991;28;20230;-56
2022/03/20 00:16:13;;;;;;;16.00;11.63;;;4.30;94.50;;;;;;5033487;28;20705;-55
2022/03/20 00:18:40;;;;;;;15.05;11.18;;;4.30;94.50;;;;;;5033986;28;20209;-55
2022/03/20 00:21:11;;;;;;;14.20;11.38;;;4.30;94.40;;;;;;5033428;28;20217;-55
2022/03/20 00:23:40;;;;;;;18.05;11.30;;;4.20;94.50;;;;;;5033304;28;20214;-56
2022/03/20 00:26:08;;;;;;;14.02;12.52;;;4.20;94.50;;;;;;5037182;28;20210;-55
2022/03/20 00:28:35;;;;;;;18.13;11.48;;;4.20;94.60;;;;;;5037384;28;20206;-55
2022/03/20 00:31:02;;;;;;;18.02;12.68;;;4.10;94.80;;;;;;5037973;28;20206;-56
2022/03/20 00:33:29;;;;;;;14.77;11.93;;;4.10;94.90;;;;;;5037492;28;20218;-55
2022/03/20 00:35:56;;;;;;;20.63;11.50;;;4.00;95.00;;;;;;5038220;28;20214;-55
2022/03/20 00:38:24;;;;;;;19.52;12.93;;;4.00;95.10;;;;;;5037334;28;20760;-54
2022/03/20 00:40:52;;;;;;;14.05;11.57;;;4.00;95.30;;;;;;5037691;28;20213;-55
2022/03/20 00:43:19;;;;;;;18.20;13.88;;;3.90;95.50;;;;;;5038055;28;20223;-55
2022/03/20 00:45:46;;;;;;;14.93;11.95;;;3.90;95.50;;;;;;5038114;28;20202;-55
2022/03/20 00:48:13;;;;;;;14.80;11.25;;;3.90;95.50;;;;;;5037521;28;20630;-55
2022/03/20 00:50:41;;;;;;;17.60;13.43;;;3.90;95.60;;;;;;5037285;28;20202;-55
2022/03/20 00:53:09;;;;;;;18.58;13.02;;;3.80;95.50;;;;;;5037197;28;20222;-55
2022/03/20 00:55:36;;;;;;;17.60;12.35;;;3.80;95.50;;;;;;5037012;28;20226;-54
2022/03/20 00:58:04;;;;;;;18.23;13.55;;;3.80;95.40;;;;;;5036882;28;20202;-53
2022/03/20 01:00:32;;;;;;;20.48;13.82;;;3.70;95.40;;;;;;5036842;28;20709;-55
2022/03/20 01:03:00;;;;;;;18.95;14.32;;;3.70;95.30;;;;;;5036990;28;20257;-55
2022/03/20 01:05:27;;;;;;;19.15;12.85;;;3.70;95.30;;;;;;5037840;28;20210;-56
2022/03/20 01:07:54;;;;;;;16.80;13.30;;;3.70;95.20;;;;;;5037322;28;20206;-56
2022/03/20 01:10:21;;;;;;;20.25;14.02;;;3.70;95.10;;;;;;5037356;28;20206;-55
2022/03/20 01:12:49;;;;;;;15.95;13.70;;;3.60;95.00;;;;;;5036607;28;20301;-55
2022/03/20 01:15:17;;;;;;;21.08;14.20;;;3.60;94.90;;;;;;5036880;28;20245;-56
2022/03/20 01:17:44;;;;;;;18.70;14.00;;;3.60;94.90;;;;;;5036286;28;20202;-55
2022/03/20 01:20:12;;;;;;;17.27;13.77;;;3.50;94.90;;;;;;5036246;28;20202;-54
2022/03/20 01:22:40;;;;;;;22.60;13.98;;;3.50;94.70;;;;;;5036309;28;20613;-55
2022/03/20 01:25:09;;;;;;;18.67;14.05;;;3.50;94.70;;;;;;5036050;28;20205;-54
2022/03/20 01:27:37;;;;;;;22.60;13.43;;;3.50;94.60;;;;;;5036325;28;20229;-55
2022/03/20 01:30:05;;;;;;;21.30;15.40;;;3.40;94.40;;;;;;5036111;28;20206;-57
2022/03/20 01:32:34;;;;;;;19.60;14.60;;;3.40;94.20;;;;;;5035995;28;20238;-54
2022/03/20 01:35:01;;;;;;;21.88;14.40;;;3.40;94.00;;;;;;5035560;28;20222;-54
2022/03/20 01:37:28;;;;;;;15.90;13.57;;;3.40;93.80;;;;;;5035216;28;20225;-55
2022/03/20 01:39:55;;;;;;;23.20;14.70;;;3.40;93.60;;;;;;5035664;28;20206;-54
2022/03/20 01:42:23;;;;;;;20.00;13.95;;;3.40;93.50;;;;;;5035637;28;20733;-54
2022/03/20 01:44:52;;;;;;;17.27;13.25;;;3.30;93.10;;;;;;5036057;28;20198;-55
2022/03/20 01:47:20;;;;;;;20.60;14.57;;;3.30;92.60;;;;;;5035953;28;20198;-55
2022/03/20 01:49:48;;;;;;;19.40;14.68;;;3.30;92.30;;;;;;5035846;28;20576;-54
2022/03/20 01:52:24;;;;;;;19.85;14.90;;;3.30;92.00;;;;;;5035771;28;20222;-54
2022/03/20 01:54:52;;;;;;;17.95;14.73;;;3.30;91.80;;;;;;5035690;28;20216;-54
2022/03/20 01:57:21;;;;;;;17.08;13.40;;;3.30;91.20;;;;;;5036592;28;20206;-54
2022/03/20 01:59:48;;;;;;;18.70;13.10;;;3.30;91.00;;;;;;5035279;28;20237;-54
2022/03/20 02:02:16;;;;;;;20.02;15.00;;;3.30;90.70;;;;;;5035504;28;20226;-54
2022/03/20 02:04:43;;;;;;;23.17;15.70;;;3.20;90.20;;;;;;5035933;28;20209;-54
2022/03/20 02:07:12;;;;;;;20.70;15.93;;;3.20;89.40;;;;;;5036310;28;20202;-55
2022/03/20 02:09:42;;;;;;;17.88;14.32;;;3.20;88.50;;;;;;5035818;28;20302;-55
2022/03/20 02:12:11;;;;;;;20.38;14.13;;;3.20;87.90;;;;;;5035876;28;20226;-55
2022/03/20 02:14:38;;;;;;;19.02;14.35;;;3.20;87.30;;;;;;5035676;28;20213;-55
2022/03/20 02:17:06;;;;;;;20.45;14.38;;;3.20;86.90;;;;;;5035901;28;20207;-55
2022/03/20 02:19:35;;;;;;;18.00;14.25;;;3.20;86.50;;;;;;5035224;28;20230;-56
2022/03/20 02:22:05;;;;;;;20.88;15.55;;;3.10;86.10;;;;;;5035348;28;20202;-55
2022/03/20 02:24:36;;;;;;;19.63;15.50;;;3.10;85.70;;;;;;5035136;28;20207;-55
2022/03/20 02:27:09;;;;;;;20.42;15.20;;;3.10;85.40;;;;;;5035136;28;20555;-54
2022/03/20 02:29:37;;;;;;;20.95;15.00;;;3.10;85.10;;;;;;5036014;28;20263;-55
2022/03/20 02:32:06;;;;;;;18.15;14.63;;;3.10;85.00;;;;;;5035328;28;20203;-55
2022/03/20 02:34:34;;;;;;;20.73;15.52;;;3.00;84.80;;;;;;5036501;28;20597;-56
2022/03/20 02:37:03;;;;;;;19.67;14.13;;;3.00;84.70;;;;;;5035138;28;20198;-55
2022/03/20 02:39:31;;;;;;;20.58;15.50;;;3.00;84.80;;;;;;5034583;28;20199;-56
2022/03/20 02:42:04;;;;;;;18.45;15.25;;;2.90;84.70;;;;;;5035312;28;20202;-56
2022/03/20 02:44:50;;;;;;;19.42;14.60;;;2.90;84.50;;;;;;5035488;28;20642;-55
2022/03/20 02:47:20;;;;;;;20.35;14.48;;;2.90;84.20;;;;;;5035622;28;20213;-55
2022/03/20 02:49:50;;;;;;;20.50;15.18;;;2.80;84.10;;;;;;5034463;28;20321;-55
2022/03/20 02:52:19;;;;;;;19.27;15.75;;;2.80;84.20;;;;;;5034776;28;20223;-55
2022/03/20 02:54:46;;;;;;;18.77;15.20;;;2.80;84.20;;;;;;5035308;28;20288;-55
2022/03/20 02:57:13;;;;;;;18.25;13.55;;;2.80;84.10;;;;;;5035241;28;20206;-56
2022/03/20 02:59:40;;;;;;;21.27;17.13;;;2.70;83.70;;;;;;5034866;28;20202;-54
2022/03/20 03:02:11;;;;;;;20.80;14.27;;;2.70;83.70;;;;;;5034499;28;20641;-55
2022/03/20 03:04:41;;;;;;;17.45;13.75;;;2.70;83.80;;;;;;5035139;28;20195;-55
2022/03/20 03:07:08;;;;;;;18.35;15.35;;;2.60;83.60;;;;;;5034905;28;20293;-56
2022/03/20 03:12:21;;;;;;;20.83;15.60;;;2.60;83.60;;;;;;5035704;28;20237;-55
2022/03/20 03:17:33;;;;;;;21.83;14.88;;;2.50;83.70;;;;;;5034482;28;20264;-54
2022/03/20 03:20:00;;;;;;;17.35;13.88;;;2.50;83.80;;;;;;5034422;28;20202;-54
2022/03/20 03:22:27;;;;;;;22.80;15.48;;;2.40;83.80;;;;;;5034694;28;20240;-54
2022/03/20 03:24:56;;;;;;;19.80;15.65;;;2.40;83.70;;;;;;5034551;28;20198;-55
2022/03/20 03:27:24;;;;;;;19.10;15.13;;;2.40;83.50;;;;;;5034824;28;20237;-55
2022/03/20 03:29:51;;;;;;;22.75;15.82;;;2.40;83.40;;;;;;5035373;28;20198;-56
2022/03/20 03:32:18;;;;;;;17.65;14.35;;;2.40;83.40;;;;;;5035347;28;20222;-55
2022/03/20 03:37:32;;;;;;;24.35;14.93;;;2.30;82.80;;;;;;5034174;28;20567;-55
2022/03/20 03:40:02;;;;;;;20.08;15.32;;;2.30;82.60;;;;;;5035592;28;20274;-55
2022/03/20 03:42:30;;;;;;;19.35;14.63;;;2.30;82.40;;;;;;5036672;28;20226;-55
2022/03/20 03:44:57;;;;;;;15.63;14.00;;;2.30;82.20;;;;;;5037714;28;20253;-56
2022/03/20 03:47:25;;;;;;;21.52;15.10;;;2.30;82.10;;;;;;5037043;28;20612;-55
2022/03/20 03:49:53;;;;;;;20.27;15.00;;;2.20;81.70;;;;;;5036879;28;20198;-56
2022/03/20 03:52:20;;;;;;;19.05;14.80;;;2.20;82.20;;;;;;5037450;28;20233;-55
2022/03/20 03:54:47;;;;;;;19.52;15.70;;;2.20;81.40;;;;;;5038679;28;20226;-56
2022/03/20 03:57:20;;;;;;;19.13;14.50;;;2.20;81.20;;;;;;5039068;28;20548;-56
2022/03/20 03:59:47;;;;;;;17.20;14.45;;;2.20;80.80;;;;;;5040098;28;20198;-56
2022/03/20 04:02:15;;;;;;;20.17;14.10;;;2.20;80.00;;;;;;5040518;28;20225;-56
2022/03/20 04:04:42;;;;;;;19.10;15.32;;;2.20;79.50;;;;;;5041179;28;20209;-54
2022/03/20 04:09:30;;;;;;;19.75;15.95;;;2.10;78.10;;;;;;5103990;27;20601;-56
2022/03/20 04:11:58;;;;;;;20.58;15.65;;;2.10;78.00;;;;;;5106562;28;20200;-56
2022/03/20 04:14:25;;;;;;;19.63;14.90;;;2.10;77.50;;;;;;5109938;28;20207;-56
2022/03/20 04:16:54;;;;;;;20.63;14.55;;;2.10;77.30;;;;;;5108351;28;20196;-56
2022/03/20 04:19:21;;;;;;;17.52;14.80;;;2.10;77.00;;;;;;5129102;22;20218;-56
2022/03/20 04:21:49;;;;;;;21.63;15.52;;;2.10;77.00;;;;;;5050532;28;20252;-57
2022/03/20 04:24:16;;;;;;;19.20;15.02;;;2.10;76.50;;;;;;5050218;28;20670;-55
2022/03/20 04:26:45;;;;;;;20.65;15.52;;;2.10;76.10;;;;;;5050266;28;20198;-56
2022/03/20 04:29:12;;;;;;;22.52;14.57;;;2.10;75.70;;;;;;5050084;28;20271;-56
2022/03/20 04:31:40;;;;;;;21.45;14.90;;;2.00;75.70;;;;;;5050117;28;20253;-56
2022/03/20 04:34:07;;;;;;;20.77;14.40;;;2.00;75.70;;;;;;5050452;28;20209;-57
2022/03/20 04:36:35;;;;;;;20.33;15.52;;;2.00;75.50;;;;;;5049983;28;20198;-56
2022/03/20 04:39:03;;;;;;;21.45;17.30;;;2.00;75.10;;;;;;5050465;28;20197;-55
2022/03/20 04:41:30;;;;;;;20.00;14.50;;;2.00;74.70;;;;;;5049921;28;20217;-57
2022/03/20 04:44:00;;;;;;;23.50;16.63;;;2.00;74.60;;;;;;5050338;28;20205;-56
2022/03/20 04:46:27;;;;;;;20.92;15.82;;;2.00;74.00;;;;;;5050572;28;20558;-56
2022/03/20 04:59:59;;;;;;;18.83;15.02;;;1.90;73.20;;;;;;5050092;28;20284;-57
2022/03/20 05:02:26;;;;;;;23.00;16.73;;;1.80;73.00;;;;;;5049772;28;20206;-55
2022/03/20 05:04:53;;;;;;;21.05;16.45;;;1.80;73.10;;;;;;5051919;28;20699;-57
2022/03/20 05:07:20;;;;;;;17.13;14.80;;;1.80;73.20;;;;;;5052732;28;20228;-57
2022/03/20 05:15:18;;;;;;;17.98;15.25;;;1.80;72.30;;;;;;5052466;28;20550;-56
2022/03/20 05:17:45;;;;;;;20.60;15.65;;;1.80;71.90;;;;;;5052387;28;20224;-57
2022/03/20 05:20:13;;;;;;;22.88;16.35;;;1.80;71.80;;;;;;5041607;28;20227;-56
2022/03/20 05:22:40;;;;;;;22.10;15.88;;;1.70;71.20;;;;;;5035999;28;20207;-55
2022/03/20 05:25:09;;;;;;;20.92;14.90;;;1.70;70.60;;;;;;5036386;28;20210;-56
2022/03/20 05:27:37;;;;;;;20.83;14.85;;;1.80;69.80;;;;;;5036160;28;20207;-56
2022/03/20 05:30:07;;;;;;;20.52;16.20;;;1.80;69.50;;;;;;5035751;28;20733;-55
2022/03/20 05:32:36;;;;;;;18.95;15.38;;;1.80;69.20;;;;;;5035919;28;20226;-57
2022/03/20 05:35:05;;;;;;;22.23;16.38;;;1.80;69.00;;;;;;5035682;28;20206;-56
2022/03/20 05:37:32;;;;;;;23.88;16.27;;;1.70;68.60;;;;;;5035955;28;20206;-56
2022/03/20 05:40:00;;;;;;;21.38;15.68;;;1.70;68.20;;;;;;5036575;28;20273;-56
2022/03/20 05:42:27;;;;;;;18.88;14.70;;;1.70;67.90;;;;;;5035523;28;20232;-56
2022/03/20 05:44:54;;;;;;;22.23;14.50;;;1.70;67.60;;;;;;5035588;28;20198;-56
2022/03/20 05:47:21;;;;;;;21.17;16.52;;;1.70;67.50;;;;;;5035459;28;20206;-56
2022/03/20 05:49:49;;;;;;;21.25;15.40;;;1.70;67.40;;;;;;5035144;28;20222;-57
2022/03/20 05:52:16;;;;;;;19.83;14.73;;;1.70;67.00;;;;;;5035408;28;20206;-57
2022/03/20 05:54:43;;;;;;;21.60;14.90;;;1.70;67.00;;;;;;5035496;28;20229;-56
2022/03/20 05:59:55;;;;;;;21.50;15.98;;;1.70;66.50;;;;;;5035249;28;20221;-57
2022/03/20 06:02:23;;;;;;;20.08;16.00;;;1.70;66.10;;;;;;5035139;28;20635;-57
2022/03/20 06:04:53;;;;;;;21.67;15.32;;;1.80;65.90;;;;;;5035693;28;20203;-56
2022/03/20 06:07:20;;;;;;;24.23;16.13;;;1.80;65.20;;;;;;5035892;28;20297;-56
2022/03/20 06:09:47;;;;;;;21.58;16.08;;;1.80;64.70;;;;;;5035652;28;20230;-56
2022/03/20 06:12:14;;;;;;;23.45;15.00;;;1.90;63.50;;;;;;5034960;28;20199;-57
2022/03/20 06:14:41;;;;;;;23.10;14.85;;;1.90;62.80;;;;;;5035032;28;20199;-57
2022/03/20 06:17:09;;;;;;;19.05;14.98;;;1.90;62.40;;;;;;5036348;28;20211;-56
2022/03/20 06:19:38;;;;;;;22.70;15.32;;;2.00;62.40;;;;;;5038130;28;20221;-57
2022/03/20 06:22:07;;;;;;;20.42;15.00;;;2.00;61.90;;;;;;5040089;28;20241;-57
2022/03/20 06:24:34;;;;;;;19.27;15.60;;;2.00;61.70;;;;;;5038362;28;20229;-57
2022/03/20 06:27:03;;;;;;;20.15;14.15;;;2.10;61.50;;;;;;5042260;28;20207;-57
2022/03/20 06:29:30;;;;;;;20.88;15.75;;;2.10;61.00;;;;;;5036802;28;20226;-57
2022/03/20 06:31:57;;;;;;;21.38;15.10;;;2.20;61.10;;;;;;5038197;28;20704;-56
2022/03/20 06:34:24;;;;;;;19.30;14.95;;;2.20;60.60;;;;;;5036334;28;20682;-57
2022/03/20 06:36:55;;;;;;;23.13;14.75;;;2.30;60.40;;;;;;5035387;28;20202;-58
2022/03/20 06:39:24;;;;;;;23.38;14.60;;;2.30;60.40;;;;;;5034791;28;20179;-57
2022/03/20 06:41:51;;;;;;;24.10;15.07;;;2.30;60.00;;;;;;5034708;28;20206;-57
2022/03/20 06:44:18;;;;;;;28.27;14.95;;;2.40;59.40;;;;;;5034759;28;20198;-57
2022/03/20 06:46:46;;;;;;;20.67;15.10;;;2.40;59.30;;;;;;5034462;28;20671;-56
2022/03/20 06:49:13;;;;;;;20.13;15.57;;;2.40;59.00;;;;;;5034165;28;20571;-57
2022/03/20 06:51:41;;;;;;;22.80;16.55;;;2.50;58.40;;;;;;5034553;28;20206;-56
2022/03/20 06:54:08;;;;;;;21.60;14.70;;;2.50;58.30;;;;;;5035538;28;20206;-55
2022/03/20 06:56:36;;;;;;;22.77;15.98;;;2.60;58.30;;;;;;5034683;28;20199;-56
2022/03/20 06:59:03;;;;;;;25.45;16.30;;;2.70;58.30;;;;;;5034091;28;20679;-56
2022/03/20 07:01:31;;;;;;;17.88;14.25;;;2.70;58.00;;;;;;5039694;28;20222;-56
2022/03/20 07:03:58;;;;;;;16.92;14.63;;;2.80;57.60;;;;;;5046520;28;20207;-57
2022/03/20 07:06:27;;;;;;;24.33;16.13;;;2.80;57.20;;;;;;5041754;28;20207;-55
2022/03/20 07:08:59;;;;;;;19.13;14.35;;;2.90;57.00;;;;;;5038401;28;20272;-57
2022/03/20 07:11:32;;;;;;;20.00;14.70;;;3.00;56.80;;;;;;5040148;28;20222;-56
2022/03/20 07:14:01;;;;;;;21.02;15.15;;;3.10;56.40;;;;;;5038725;28;20254;-56
2022/03/20 07:16:30;;;;;;;20.50;14.23;;;3.10;56.10;;;;;;5039830;28;20229;-55
2022/03/20 07:18:58;;;;;;;21.63;15.25;;;3.20;55.80;;;;;;5038896;28;20199;-57
2022/03/20 07:21:25;;;;;;;21.00;14.85;;;3.30;55.60;;;;;;5035160;28;20234;-57
2022/03/20 07:23:54;;;;;;;23.92;15.98;;;3.40;55.20;;;;;;5034097;28;20213;-57
2022/03/20 07:31:51;;;;;;;21.38;15.93;;;3.60;54.50;;;;;;5034017;28;20185;-56
2022/03/20 07:34:18;;;;;;;18.33;15.25;;;3.70;53.20;;;;;;5033586;28;20201;-56
2022/03/20 07:36:45;;;;;;;20.90;16.73;;;3.80;52.80;;;;;;5034881;28;20576;-56
2022/03/20 07:39:12;;;;;;;20.73;16.70;;;3.80;52.40;;;;;;5036996;28;20663;-56
2022/03/20 07:41:40;;;;;;;20.27;15.13;;;3.90;52.00;;;;;;5040599;28;20233;-56
2022/03/20 07:44:08;;;;;;;23.48;16.58;;;4.00;51.80;;;;;;5039184;28;20210;-57
2022/03/20 07:46:38;;;;;;;19.95;15.88;;;4.00;51.40;;;;;;5040919;28;20202;-57
2022/03/20 07:49:07;;;;;;;24.83;15.35;;;4.20;51.30;;;;;;5042958;28;20674;-56
2022/03/20 07:51:34;;;;;;;29.25;16.90;;;4.20;50.50;;;;;;5040419;28;20233;-56
2022/03/20 07:54:01;;;;;;;21.38;16.70;;;4.40;50.30;;;;;;5040942;28;20203;-57
2022/03/20 07:56:34;;;;;;;22.80;18.17;;;4.40;49.80;;;;;;5046352;28;20213;-56
2022/03/20 07:59:06;;;;;;;22.38;16.00;;;4.50;50.10;;;;;;5048251;28;20185;-56
2022/03/20 08:01:35;;;;;;;20.60;16.45;;;4.60;49.10;;;;;;5052403;28;20237;-55
2022/03/20 08:04:02;;;;;;;21.60;15.55;;;4.70;48.90;;;;;;5052232;28;20202;-55
2022/03/20 08:06:30;;;;;;;21.08;16.75;;;4.70;48.80;;;;;;5053351;28;20236;-55
2022/03/20 08:08:59;;;;;;;22.08;16.58;;;4.90;48.70;;;;;;5053309;28;20309;-55
2022/03/20 08:11:27;;;;;;;20.45;17.33;;;5.00;48.30;;;;;;5044147;28;20213;-55
2022/03/20 08:13:55;;;;;;;21.13;16.50;;;5.10;48.10;;;;;;5044134;28;20202;-56
2022/03/20 08:16:25;;;;;;;21.10;16.75;;;5.20;48.10;;;;;;5047696;28;20206;-56
2022/03/20 08:18:54;;;;;;;22.73;16.67;;;5.30;48.10;;;;;;5045080;28;20193;-55
2022/03/20 08:21:21;;;;;;;24.98;17.00;;;5.50;47.90;;;;;;5045660;28;20234;-55
2022/03/20 08:23:49;;;;;;;21.13;16.80;;;5.50;47.40;;;;;;5035774;28;20202;-55
2022/03/20 08:26:17;;;;;;;27.50;18.08;;;5.60;47.20;;;;;;5035698;28;20316;-55
2022/03/20 08:28:44;;;;;;;22.98;17.27;;;5.70;47.10;;;;;;5033696;28;20254;-55
2022/03/20 08:31:11;;;;;;;24.15;17.85;;;5.80;47.00;;;;;;5033839;28;20595;-56
2022/03/20 08:33:40;;;;;;;21.85;17.83;;;5.90;46.90;;;;;;5034984;28;20202;-55
2022/03/20 08:36:09;;;;;;;22.48;16.60;;;6.00;46.50;;;;;;5033615;28;20679;-55
2022/03/20 08:38:39;;;;;;;22.88;17.85;;;6.00;45.90;;;;;;5033911;28;20214;-55
2022/03/20 08:41:06;;;;;;;23.05;18.02;;;6.10;45.80;;;;;;5033762;28;20221;-56
2022/03/20 08:43:33;;;;;;;25.02;18.20;;;6.10;45.50;;;;;;5038216;28;20230;-55
2022/03/20 08:46:01;;;;;;;21.33;16.60;;;6.20;45.50;;;;;;5038955;28;20206;-55
2022/03/20 08:48:28;;;;;;;19.83;16.00;;;6.30;45.50;;;;;;5033964;28;20203;-55
2022/03/20 08:50:55;;;;;;;20.70;17.40;;;6.50;45.60;;;;;;5034129;28;20227;-53
2022/03/20 08:53:25;;;;;;;22.90;18.00;;;6.60;45.40;;;;;;5034786;28;20206;-55
2022/03/20 08:55:52;;;;;;;25.17;17.90;;;6.70;45.20;;;;;;5036780;28;20202;-54
2022/03/20 08:58:19;;;;;;;24.65;17.77;;;6.80;44.90;;;;;;5037382;28;20202;-54
2022/03/20 09:00:46;;;;;;;24.08;18.40;;;6.90;44.70;;;;;;5036960;28;20222;-53
2022/03/20 09:03:13;;;;;;;22.48;18.23;;;7.00;44.50;;;;;;5036661;28;20202;-54
2022/03/20 09:05:41;;;;;;;23.92;17.45;;;7.10;44.40;;;;;;5037904;28;20214;-55
2022/03/20 09:08:08;;;;;;;21.60;16.73;;;7.10;44.30;;;;;;5037090;28;20210;-55
2022/03/20 09:10:36;;;;;;;25.17;17.85;;;7.20;44.20;;;;;;5044722;28;20248;-55
2022/03/20 09:13:04;;;;;;;24.35;18.25;;;7.30;43.90;;;;;;5049918;28;20206;-55
2022/03/20 09:15:31;;;;;;;19.27;15.70;;;7.30;43.60;;;;;;5041405;28;20214;-54
2022/03/20 09:20:45;;;;;;;22.85;17.48;;;7.40;43.30;;;;;;5036446;28;20640;-53
2022/03/20 09:23:13;;;;;;;21.98;16.77;;;7.50;43.40;;;;;;5036799;28;20208;-53
2022/03/20 09:25:42;;;;;;;25.98;18.08;;;7.60;43.20;;;;;;5036345;28;20682;-53
2022/03/20 09:28:13;;;;;;;25.38;16.83;;;7.80;43.00;;;;;;5036463;28;20202;-54
2022/03/20 09:30:42;;;;;;;21.17;16.95;;;7.80;42.50;;;;;;5035801;28;20238;-53
2022/03/20 09:33:10;;;;;;;26.05;18.30;;;7.80;42.20;;;;;;5036588;28;20217;-53
2022/03/20 09:35:38;;;;;;;24.20;17.83;;;7.90;42.30;;;;;;5037149;28;20202;-53
2022/03/20 09:38:08;;;;;;;22.85;18.90;;;7.90;42.30;;;;;;5037058;28;20202;-55
2022/03/20 09:40:37;;;;;;;19.48;17.02;;;8.00;42.20;;;;;;5037085;28;20268;-55
2022/03/20 09:43:05;;;;;;;22.65;18.58;;;8.10;42.00;;;;;;5036228;28;20232;-55
2022/03/20 09:45:32;;;;;;;19.83;16.25;;;8.10;41.90;;;;;;5036306;28;20229;-55
2022/03/20 09:48:00;;;;;;;23.17;17.40;;;8.20;41.80;;;;;;5035905;28;20213;-54
2022/03/20 09:50:28;;;;;;;23.42;17.30;;;8.30;41.60;;;;;;5035876;28;20305;-54
2022/03/20 09:52:55;;;;;;;20.65;18.15;;;8.40;41.60;;;;;;5035832;28;20203;-53
2022/03/20 09:55:22;;;;;;;20.20;17.00;;;8.50;41.50;;;;;;5036339;28;20285;-54
2022/03/20 09:57:49;;;;;;;21.83;16.70;;;8.60;41.30;;;;;;5035876;28;20213;-53
2022/03/20 10:00:18;;;;;;;20.95;18.55;;;8.70;41.00;;;;;;5035224;28;20710;-53
2022/03/20 10:02:45;;;;;;;21.75;17.30;;;8.80;40.90;;;;;;5035731;28;20209;-54
2022/03/20 10:05:12;;;;;;;20.98;17.85;;;9.00;40.90;;;;;;5035225;28;20209;-54
2022/03/20 10:07:43;;;;;;;21.45;16.98;;;9.00;40.40;;;;;;5035398;28;20203;-54
2022/03/20 10:10:15;;;;;;;22.23;16.95;;;9.10;40.00;;;;;;5035629;28;20598;-56
2022/03/20 10:12:45;;;;;;;20.80;16.52;;;9.10;39.50;;;;;;5036482;28;20196;-54
2022/03/20 10:15:32;;;;;;;20.98;17.40;;;9.10;39.60;;;;;;5035271;28;20214;-55
2022/03/20 10:18:14;;;;;;;22.42;17.05;;;9.20;39.60;;;;;;5035215;28;20674;-55
2022/03/20 10:20:44;;;;;;;20.57;16.57;;;9.30;39.60;;;;;;5042945;28;20231;-54
2022/03/20 10:23:34;;;;;;;18.53;16.33;;;9.40;39.20;;;;;;5042875;28;20433;-55
2022/03/20 10:26:05;;;;;;;21.75;16.90;;;9.60;38.70;;;;;;5039924;28;20477;-53
2022/03/20 10:28:37;;;;;;;20.83;16.80;;;9.60;38.50;;;;;;5038650;28;20190;-54
2022/03/20 10:31:08;;;;;;;17.20;15.47;;;9.70;38.30;;;;;;5037974;28;20562;-54
2022/03/20 10:33:38;;;;;;;18.30;16.17;;;9.70;38.00;;;;;;5037428;28;20842;-55
2022/03/20 10:36:16;;;;;;;17.83;15.53;;;9.80;37.90;;;;;;5037579;28;20438;-54
2022/03/20 10:38:45;;;;;;;20.63;16.50;;;9.90;37.80;;;;;;5037204;28;20445;-54
2022/03/20 10:41:20;;;;;;;18.63;14.67;;;9.90;37.50;;;;;;5036453;28;20496;-55
2022/03/20 10:43:48;;;;;;;19.00;16.23;;;10.00;36.50;;;;;;5038004;28;20440;-54
2022/03/20 10:46:21;;;;;;;21.10;16.03;;;10.10;36.50;;;;;;5037058;28;20445;-54
2022/03/20 10:48:50;;;;;;;20.13;15.23;;;10.20;36.50;;;;;;5036435;28;20921;-54
2022/03/20 10:51:37;;;;;;;19.40;15.27;;;10.30;36.30;;;;;;5035042;28;20496;-55
2022/03/20 10:54:06;;;;;;;21.17;16.80;;;10.40;36.20;;;;;;5034780;28;20815;-54
2022/03/20 10:56:33;;;;;;;17.80;15.90;;;10.50;36.20;;;;;;5034601;28;20475;-55
2022/03/20 10:59:02;;;;;;;25.20;16.60;;;10.60;36.10;;;;;;5034708;28;20445;-56
2022/03/20 11:01:38;;;;;;;16.57;14.87;;;10.70;36.00;;;;;;5034933;28;20476;-54
2022/03/20 11:04:06;;;;;;;18.27;15.10;;;10.80;36.00;;;;;;5035326;28;20445;-55
2022/03/20 11:06:33;;;;;;;20.43;15.33;;;10.90;36.00;;;;;;5034742;28;20995;-54
2022/03/20 11:09:03;;;;;;;19.07;15.50;;;11.00;35.60;;;;;;5034621;28;20514;-55
2022/03/20 11:11:33;;;;;;;19.50;15.43;;;11.00;35.30;;;;;;5044563;28;20915;-54
2022/03/20 11:14:01;;;;;;;19.43;14.63;;;11.00;35.50;;;;;;5048641;28;20444;-55
2022/03/20 11:16:29;;;;;;;20.77;16.33;;;11.00;35.20;;;;;;5040340;28;20445;-54
2022/03/20 11:18:59;;;;;;;21.57;15.10;;;11.10;35.00;;;;;;5035056;28;20815;-54
2022/03/20 11:21:29;;;;;;;17.97;16.07;;;11.10;34.80;;;;;;5033981;28;20485;-54
2022/03/20 11:23:56;;;;;;;21.67;17.17;;;11.10;34.80;;;;;;5034327;28;20977;-53
2022/03/20 11:26:26;;;;;;;19.87;16.37;;;11.10;35.00;;;;;;5034195;28;20928;-54
2022/03/20 11:28:58;;;;;;;18.77;16.83;;;11.20;35.10;;;;;;5034776;28;20511;-55
2022/03/20 11:31:26;;;;;;;19.87;16.60;;;11.30;35.10;;;;;;5034621;28;20907;-55
2022/03/20 11:33:55;;;;;;;17.30;15.47;;;11.40;34.90;;;;;;5034867;28;20445;-54
2022/03/20 11:36:24;;;;;;;16.50;14.87;;;11.40;34.70;;;;;;5037333;28;20460;-54
2022/03/20 11:39:10;;;;;;;19.53;14.70;;;11.50;34.80;;;;;;5036701;28;20463;-54
2022/03/20 11:41:38;;;;;;;18.17;13.90;;;11.60;34.40;;;;;;5036702;28;20461;-55
2022/03/20 11:44:20;;;;;;;14.80;13.07;;;11.70;34.10;;;;;;5035537;28;20818;-55
2022/03/20 11:46:47;;;;;;;14.27;12.30;;;11.90;33.80;;;;;;5037488;28;20430;-55
2022/03/20 11:49:22;;;;;;;14.80;13.30;;;12.00;33.20;;;;;;5037281;28;20968;-55
2022/03/20 11:52:06;;;;;;;15.50;13.07;;;12.00;32.90;;;;;;5036933;28;20456;-56
2022/03/20 11:54:52;;;;;;;16.27;13.70;;;12.10;32.50;;;;;;5036446;28;20832;-55
2022/03/20 11:57:42;;;;;;;19.37;13.93;;;12.20;32.20;;;;;;5034562;28;20909;-54
2022/03/20 12:00:14;;;;;;;22.70;13.87;;;12.20;32.00;;;;;;5035370;28;20465;-56
2022/03/20 12:02:54;;;;;;;16.83;13.80;;;12.20;32.20;;;;;;5034291;28;20765;-56
2022/03/20 12:05:54;;;;;;;17.73;15.10;;;12.30;32.60;;;;;;5034305;28;20440;-55
2022/03/20 12:08:41;;;;;;;15.93;13.93;;;12.40;32.60;;;;;;5032929;28;20457;-57
2022/03/20 12:11:20;;;;;;;17.10;14.27;;;12.50;32.00;;;;;;5033881;28;20476;-56
2022/03/20 12:13:55;;;;;;;16.13;14.33;;;12.50;32.00;;;;;;5035649;28;20436;-57
2022/03/20 12:16:53;;;;;;;16.60;14.67;;;12.50;31.80;;;;;;5033933;28;20467;-55
2022/03/20 12:19:21;;;;;;;16.60;14.27;;;12.50;31.40;;;;;;5028082;28;20449;-56
2022/03/20 12:21:58;;;;;;;18.77;13.67;;;12.50;31.30;;;;;;5033651;28;20957;-55
2022/03/20 12:24:55;;;;;;;16.27;13.47;;;12.60;31.40;;;;;;5033774;28;20496;-55
2022/03/20 12:27:42;;;;;;;18.50;14.53;;;12.60;31.40;;;;;;5034117;28;20448;-56
2022/03/20 12:30:34;;;;;;;15.70;12.93;;;12.70;31.40;;;;;;5035726;28;20523;-56
2022/03/20 12:33:20;;;;;;;18.57;14.23;;;12.80;31.50;;;;;;5038209;28;20536;-57
2022/03/20 12:35:47;;;;;;;17.90;13.40;;;12.90;31.30;;;;;;5037420;28;20440;-57
2022/03/20 12:38:48;;;;;;;18.17;13.63;;;13.00;30.70;;;;;;5037373;28;20976;-56
2022/03/20 12:41:20;;;;;;;16.97;14.13;;;13.00;30.90;;;;;;4976152;28;20559;-57
2022/03/20 12:44:09;;;;;;;16.80;14.23;;;13.00;31.20;;;;;;4976668;28;20464;-56
2022/03/20 12:46:40;;;;;;;16.23;14.63;;;13.10;31.30;;;;;;5012442;28;20977;-52
2022/03/20 12:49:16;;;;;;;15.57;13.77;;;13.20;31.20;;;;;;5037138;28;20437;-56
2022/03/20 12:51:44;;;;;;;14.50;12.73;;;13.20;30.80;;;;;;5036667;28;21019;-56
2022/03/20 12:54:15;;;;;;;15.00;12.93;;;13.20;30.90;;;;;;5038892;28;20488;-56
2022/03/20 12:56:59;;;;;;;16.90;13.53;;;13.30;30.60;;;;;;5039495;28;20469;-55
2022/03/20 12:59:26;;;;;;;17.03;14.37;;;13.20;30.00;;;;;;5040475;28;20441;-56
2022/03/20 13:01:54;;;;;;;16.67;14.17;;;13.20;29.80;;;;;;5037389;28;20530;-56
2022/03/20 13:04:21;;;;;;;17.60;14.57;;;13.10;29.90;;;;;;5036805;28;20445;-53
2022/03/20 13:06:50;;;;;;;16.73;14.00;;;13.20;30.10;;;;;;5037173;28;20452;-56
2022/03/20 13:09:17;;;;;;;15.27;13.60;;;13.20;30.10;;;;;;5036855;28;20791;-57
2022/03/20 13:11:52;;;;;;;16.77;12.67;;;13.30;30.10;;;;;;5039353;28;20503;-57
2022/03/20 13:14:23;;;;;;;16.47;13.10;;;13.30;30.00;;;;;;5049856;28;20459;-56
2022/03/20 13:16:51;;;;;;;13.90;11.80;;;13.30;30.00;;;;;;5048758;28;20535;-57
2022/03/20 13:19:32;;;;;;;13.90;12.20;;;13.30;30.10;;;;;;5037060;28;20449;-58
2022/03/20 13:22:04;;;;;;;16.73;14.17;;;13.20;29.90;;;;;;5037535;28;20453;-56
2022/03/20 13:24:33;;;;;;;20.80;15.50;;;13.20;30.00;;;;;;5036715;28;20987;-57
2022/03/20 13:27:03;;;;;;;15.17;13.57;;;13.20;30.00;;;;;;5042164;28;20441;-57